sensor_id;sensor_type;location;lat;lon;timestamp;P1;durP1;ratioP1;P2;durP2;ratioP2
49820;SDS011;36893;52.520;13.450;2023-06-22T00:03:21;2.63;;;1.43;;
49820;SDS011;36893;52.520;13.450;2023-06-22T00:13:24;2.35;;;1.65;;
49820;SDS011;36893;52.520;13.450;2023-06-22T00:23:25;5.40;;;2.20;;
49820;SDS011;36893;52.520;13.450;2023-06-22T00:33:26;4.68;;;2.08;;
49820;SDS011;36893;52.520;13.450;2023-06-22T00:53:28;2.03;;;1.30;;
49820;SDS011;36893;52.520;13.450;2023-06-22T01:03:29;5.30;;;1.87;;
49820;SDS011;36893;52.520;13.450;2023-06-22T01:34:11;4.00;;;1.93;;
49820;SDS011;36893;52.520;13.450;2023-06-22T01:44:13;5.00;;;2.37;;
49820;SDS011;36893;52.520;13.450;2023-06-22T01:54:14;3.53;;;1.55;;
49820;SDS011;36893;52.520;13.450;2023-06-22T02:04:20;3.47;;;2.10;;
49820;SDS011;36893;52.520;13.450;2023-06-22T02:14:25;7.43;;;2.28;;
49820;SDS011;36893;52.520;13.450;2023-06-22T02:24:26;8.65;;;2.13;;
49820;SDS011;36893;52.520;13.450;2023-06-22T02:34:27;3.63;;;2.13;;
49820;SDS011;36893;52.520;13.450;2023-06-22T02:44:27;7.43;;;2.63;;
49820;SDS011;36893;52.520;13.450;2023-06-22T02:54:28;3.83;;;2.07;;
49820;SDS011;36893;52.520;13.450;2023-06-22T03:04:28;3.87;;;1.37;;
49820;SDS011;36893;52.520;13.450;2023-06-22T03:24:31;3.77;;;1.73;;
49820;SDS011;36893;52.520;13.450;2023-06-22T03:34:34;3.38;;;1.92;;
49820;SDS011;36893;52.520;13.450;2023-06-22T03:44:37;2.15;;;1.25;;
49820;SDS011;36893;52.520;13.450;2023-06-22T03:54:38;2.77;;;1.50;;
49820;SDS011;36893;52.520;13.450;2023-06-22T04:04:39;3.00;;;1.80;;
49820;SDS011;36893;52.520;13.450;2023-06-22T04:14:39;1.20;;;0.90;;
49820;SDS011;36893;52.520;13.450;2023-06-22T04:24:40;2.67;;;1.07;;
49820;SDS011;36893;52.520;13.450;2023-06-22T04:34:41;1.80;;;0.73;;
49820;SDS011;36893;52.520;13.450;2023-06-22T04:44:42;0.35;;;0.35;;
49820;SDS011;36893;52.520;13.450;2023-06-22T04:54:43;0.80;;;0.60;;
49820;SDS011;36893;52.520;13.450;2023-06-22T05:04:47;2.13;;;1.02;;
49820;SDS011;36893;52.520;13.450;2023-06-22T05:14:51;1.95;;;1.00;;
49820;SDS011;36893;52.520;13.450;2023-06-22T05:24:51;1.60;;;0.90;;
49820;SDS011;36893;52.520;13.450;2023-06-22T05:34:52;1.07;;;0.83;;
49820;SDS011;36893;52.520;13.450;2023-06-22T05:44:53;0.43;;;0.43;;
49820;SDS011;36893;52.520;13.450;2023-06-22T05:54:53;2.03;;;1.07;;
49820;SDS011;36893;52.520;13.450;2023-06-22T06:04:54;1.33;;;0.70;;
49820;SDS011;36893;52.520;13.450;2023-06-22T06:14:54;2.67;;;0.83;;
49820;SDS011;36893;52.520;13.450;2023-06-22T06:24:56;0.63;;;0.63;;
49820;SDS011;36893;52.520;13.450;2023-06-22T06:34:57;0.37;;;0.33;;
49820;SDS011;36893;52.520;13.450;2023-06-22T06:44:57;6.43;;;0.80;;
49820;SDS011;36893;52.520;13.450;2023-06-22T06:54:58;0.77;;;0.70;;
49820;SDS011;36893;52.520;13.450;2023-06-22T07:04:59;1.27;;;0.82;;
49820;SDS011;36893;52.520;13.450;2023-06-22T07:15:03;3.33;;;1.40;;
49820;SDS011;36893;52.520;13.450;2023-06-22T07:25:09;1.80;;;1.02;;
49820;SDS011;36893;52.520;13.450;2023-06-22T07:35:10;1.23;;;0.70;;
49820;SDS011;36893;52.520;13.450;2023-06-22T07:45:11;1.17;;;0.70;;
49820;SDS011;36893;52.520;13.450;2023-06-22T07:55:11;4.20;;;1.17;;
49820;SDS011;36893;52.520;13.450;2023-06-22T08:05:13;0.30;;;0.20;;
49820;SDS011;36893;52.520;13.450;2023-06-22T08:15:14;1.83;;;0.73;;
49820;SDS011;36893;52.520;13.450;2023-06-22T08:25:15;4.13;;;0.87;;
49820;SDS011;36893;52.520;13.450;2023-06-22T08:35:16;0.40;;;0.40;;
49820;SDS011;36893;52.520;13.450;2023-06-22T08:45:16;1.27;;;0.70;;
49820;SDS011;36893;52.520;13.450;2023-06-22T08:55:17;1.90;;;0.63;;
49820;SDS011;36893;52.520;13.450;2023-06-22T09:05:18;0.60;;;0.50;;
49820;SDS011;36893;52.520;13.450;2023-06-22T09:15:18;0.20;;;0.20;;
49820;SDS011;36893;52.520;13.450;2023-06-22T09:25:19;0.57;;;0.50;;
49820;SDS011;36893;52.520;13.450;2023-06-22T09:35:20;0.20;;;0.20;;
49820;SDS011;36893;52.520;13.450;2023-06-22T09:45:21;1.07;;;0.57;;
49820;SDS011;36893;52.520;13.450;2023-06-22T09:55:21;0.10;;;0.10;;
49820;SDS011;36893;52.520;13.450;2023-06-22T10:05:22;0.30;;;0.30;;
49820;SDS011;36893;52.520;13.450;2023-06-22T10:15:23;2.17;;;0.87;;
49820;SDS011;36893;52.520;13.450;2023-06-22T10:25:24;1.05;;;0.43;;
49820;SDS011;36893;52.520;13.450;2023-06-22T10:35:24;0.55;;;0.20;;
49820;SDS011;36893;52.520;13.450;2023-06-22T10:45:25;0.13;;;0.13;;
49820;SDS011;36893;52.520;13.450;2023-06-22T10:55:27;2.15;;;0.65;;
49820;SDS011;36893;52.520;13.450;2023-06-22T11:05:28;9.00;;;1.27;;
49820;SDS011;36893;52.520;13.450;2023-06-22T11:15:28;0.77;;;0.50;;
49820;SDS011;36893;52.520;13.450;2023-06-22T11:25:29;0.53;;;0.40;;
49820;SDS011;36893;52.520;13.450;2023-06-22T11:35:29;0.50;;;0.43;;
49820;SDS011;36893;52.520;13.450;2023-06-22T11:45:30;0.33;;;0.33;;
49820;SDS011;36893;52.520;13.450;2023-06-22T11:55:31;0.77;;;0.30;;
49820;SDS011;36893;52.520;13.450;2023-06-22T12:05:31;1.07;;;0.57;;
49820;SDS011;36893;52.520;13.450;2023-06-22T12:15:32;0.60;;;0.30;;
49820;SDS011;36893;52.520;13.450;2023-06-22T12:25:32;0.37;;;0.23;;
49820;SDS011;36893;52.520;13.450;2023-06-22T12:35:34;0.60;;;0.47;;
49820;SDS011;36893;52.520;13.450;2023-06-22T12:45:34;0.87;;;0.60;;
49820;SDS011;36893;52.520;13.450;2023-06-22T12:55:35;0.83;;;0.50;;
49820;SDS011;36893;52.520;13.450;2023-06-22T13:05:36;0.30;;;0.30;;
49820;SDS011;36893;52.520;13.450;2023-06-22T13:15:36;2.43;;;0.77;;
49820;SDS011;36893;52.520;13.450;2023-06-22T13:25:37;1.40;;;0.60;;
49820;SDS011;36893;52.520;13.450;2023-06-22T13:35:37;1.17;;;0.50;;
49820;SDS011;36893;52.520;13.450;2023-06-22T13:45:38;1.17;;;0.63;;
49820;SDS011;36893;52.520;13.450;2023-06-22T13:55:39;0.33;;;0.20;;
49820;SDS011;36893;52.520;13.450;2023-06-22T14:05:40;0.10;;;0.10;;
49820;SDS011;36893;52.520;13.450;2023-06-22T14:25:43;1.35;;;0.45;;
49820;SDS011;36893;52.520;13.450;2023-06-22T14:35:43;1.13;;;0.50;;
49820;SDS011;36893;52.520;13.450;2023-06-22T14:45:44;1.33;;;0.40;;
49820;SDS011;36893;52.520;13.450;2023-06-22T14:55:44;0.53;;;0.23;;
49820;SDS011;36893;52.520;13.450;2023-06-22T15:05:45;1.10;;;0.50;;
49820;SDS011;36893;52.520;13.450;2023-06-22T15:15:46;0.77;;;0.50;;
49820;SDS011;36893;52.520;13.450;2023-06-22T15:25:47;0.77;;;0.47;;
49820;SDS011;36893;52.520;13.450;2023-06-22T15:35:48;1.23;;;0.70;;
49820;SDS011;36893;52.520;13.450;2023-06-22T15:45:48;1.43;;;0.70;;
49820;SDS011;36893;52.520;13.450;2023-06-22T15:55:49;0.93;;;0.50;;
49820;SDS011;36893;52.520;13.450;2023-06-22T16:05:50;0.50;;;0.32;;
49820;SDS011;36893;52.520;13.450;2023-06-22T16:15:50;1.63;;;0.73;;
49820;SDS011;36893;52.520;13.450;2023-06-22T16:25:52;0.63;;;0.57;;
49820;SDS011;36893;52.520;13.450;2023-06-22T16:35:58;0.47;;;0.38;;
49820;SDS011;36893;52.520;13.450;2023-06-22T16:46:00;0.20;;;0.20;;
49820;SDS011;36893;52.520;13.450;2023-06-22T16:56:00;1.40;;;1.20;;
49820;SDS011;36893;52.520;13.450;2023-06-22T17:06:01;2.40;;;0.97;;
49820;SDS011;36893;52.520;13.450;2023-06-22T17:16:03;1.25;;;0.68;;
49820;SDS011;36893;52.520;13.450;2023-06-22T17:36:10;1.30;;;0.70;;
49820;SDS011;36893;52.520;13.450;2023-06-22T17:46:13;1.73;;;0.82;;
49820;SDS011;36893;52.520;13.450;2023-06-22T17:56:17;1.08;;;0.52;;
49820;SDS011;36893;52.520;13.450;2023-06-22T18:06:21;0.60;;;0.40;;
49820;SDS011;36893;52.520;13.450;2023-06-22T18:16:23;2.85;;;0.50;;
49820;SDS011;36893;52.520;13.450;2023-06-22T18:36:27;2.83;;;0.88;;
49820;SDS011;36893;52.520;13.450;2023-06-22T18:46:33;2.20;;;1.00;;
49820;SDS011;36893;52.520;13.450;2023-06-22T18:56:47;1.02;;;0.75;;
49820;SDS011;36893;52.520;13.450;2023-06-22T19:06:55;1.33;;;0.57;;
49820;SDS011;36893;52.520;13.450;2023-06-22T19:16:59;3.23;;;1.20;;
49820;SDS011;36893;52.520;13.450;2023-06-22T19:26:59;0.50;;;0.50;;
49820;SDS011;36893;52.520;13.450;2023-06-22T19:37:00;3.33;;;0.90;;
49820;SDS011;36893;52.520;13.450;2023-06-22T19:47:01;3.27;;;1.53;;
49820;SDS011;36893;52.520;13.450;2023-06-22T19:57:02;2.17;;;1.30;;
49820;SDS011;36893;52.520;13.450;2023-06-22T20:07:03;4.93;;;1.20;;
49820;SDS011;36893;52.520;13.450;2023-06-22T20:17:06;1.30;;;0.82;;
49820;SDS011;36893;52.520;13.450;2023-06-22T20:27:11;1.50;;;0.88;;
49820;SDS011;36893;52.520;13.450;2023-06-22T20:37:13;2.78;;;1.02;;
49820;SDS011;36893;52.520;13.450;2023-06-22T20:47:18;2.65;;;1.00;;
49820;SDS011;36893;52.520;13.450;2023-06-22T20:57:22;1.95;;;1.05;;
49820;SDS011;36893;52.520;13.450;2023-06-22T21:07:23;1.63;;;1.13;;
49820;SDS011;36893;52.520;13.450;2023-06-22T21:17:24;5.47;;;1.13;;
49820;SDS011;36893;52.520;13.450;2023-06-22T21:27:24;2.73;;;1.30;;
49820;SDS011;36893;52.520;13.450;2023-06-22T21:37:25;2.00;;;1.00;;
49820;SDS011;36893;52.520;13.450;2023-06-22T21:47:26;4.45;;;1.83;;
49820;SDS011;36893;52.520;13.450;2023-06-22T21:57:27;0.75;;;0.63;;
49820;SDS011;36893;52.520;13.450;2023-06-22T22:07:27;2.17;;;1.17;;
49820;SDS011;36893;52.520;13.450;2023-06-22T22:17:30;1.98;;;0.90;;
49820;SDS011;36893;52.520;13.450;2023-06-22T22:27:30;1.13;;;0.70;;
49820;SDS011;36893;52.520;13.450;2023-06-22T22:37:31;3.67;;;1.27;;
49820;SDS011;36893;52.520;13.450;2023-06-22T22:47:32;1.58;;;1.23;;
49820;SDS011;36893;52.520;13.450;2023-06-22T23:07:34;6.10;;;1.27;;
49820;SDS011;36893;52.520;13.450;2023-06-22T23:17:35;2.30;;;1.50;;
49820;SDS011;36893;52.520;13.450;2023-06-22T23:27:36;1.90;;;1.00;;
49820;SDS011;36893;52.520;13.450;2023-06-22T23:37:37;2.30;;;1.30;;
49820;SDS011;36893;52.520;13.450;2023-06-22T23:47:41;0.77;;;0.57;;
49820;SDS011;36893;52.520;13.450;2023-06-22T23:57:42;0.75;;;0.50;;
